createdAt,value
2024-01-30T00:01:18.625Z,6.20
2024-01-30T00:03:45.736Z,6.55
2024-01-30T00:06:13.398Z,5.68
2024-01-30T00:08:40.508Z,6.90
2024-01-30T00:11:08.927Z,6.43
2024-01-30T00:13:35.969Z,6.50
2024-01-30T00:16:03.050Z,6.53
2024-01-30T00:18:30.114Z,6.88
2024-01-30T00:20:57.234Z,6.78
2024-01-30T00:23:24.320Z,7.10
2024-01-30T00:25:51.636Z,6.13
2024-01-30T00:28:18.699Z,6.68
2024-01-30T00:30:45.868Z,6.40
2024-01-30T00:33:13.075Z,7.20
2024-01-30T00:35:40.220Z,6.07
2024-01-30T00:38:09.761Z,6.70
2024-01-30T00:40:36.764Z,7.10
2024-01-30T00:43:03.857Z,6.43
2024-01-30T00:45:30.942Z,6.57
2024-01-30T00:47:58.259Z,6.53
2024-01-30T00:50:25.371Z,6.73
2024-01-30T00:52:52.525Z,6.50
2024-01-30T00:55:19.793Z,6.80
2024-01-30T00:57:46.949Z,6.85
2024-01-30T01:00:17.172Z,6.00
2024-01-30T01:02:44.999Z,6.05
2024-01-30T01:05:12.071Z,6.23
2024-01-30T01:07:39.145Z,6.60
2024-01-30T01:10:06.641Z,6.10
2024-01-30T01:12:33.801Z,6.85
2024-01-30T01:15:00.804Z,6.30
2024-01-30T01:17:28.409Z,6.78
2024-01-30T01:19:55.548Z,6.53
2024-01-30T01:22:22.659Z,6.80
2024-01-30T01:24:49.997Z,6.20
2024-01-30T01:27:17.395Z,7.13
2024-01-30T01:29:44.486Z,7.45
2024-01-30T01:32:11.557Z,6.40
2024-01-30T01:34:38.740Z,5.93
2024-01-30T01:37:06.219Z,6.45
2024-01-30T01:39:33.459Z,6.85
2024-01-30T01:42:00.666Z,6.35
2024-01-30T01:44:28.510Z,6.53
2024-01-30T01:46:56.353Z,7.32
2024-01-30T01:49:26.556Z,7.38
2024-01-30T01:51:58.202Z,6.53
2024-01-30T01:54:28.280Z,7.22
2024-01-30T01:56:55.795Z,7.30
2024-01-30T01:59:25.093Z,6.57
2024-01-30T02:01:54.617Z,6.68
2024-01-30T02:04:21.949Z,6.80
2024-01-30T02:06:49.425Z,7.07
2024-01-30T02:09:17.072Z,7.15
2024-01-30T02:11:44.282Z,6.68
2024-01-30T02:14:11.360Z,6.90
2024-01-30T02:16:38.468Z,6.40
2024-01-30T02:19:06.651Z,7.28
2024-01-30T02:21:37.866Z,4.85
2024-01-30T02:24:06.166Z,6.75
2024-01-30T02:26:33.769Z,7.00
2024-01-30T02:29:01.167Z,5.90
2024-01-30T02:31:28.382Z,6.85
2024-01-30T02:33:55.579Z,6.97
2024-01-30T02:36:22.768Z,6.05
2024-01-30T02:38:50.007Z,6.60
2024-01-30T02:41:16.980Z,6.85
2024-01-30T02:43:44.259Z,7.20
2024-01-30T02:46:11.300Z,6.47
2024-01-30T02:48:40.467Z,6.83
2024-01-30T02:51:07.587Z,7.25
2024-01-30T02:53:34.707Z,6.97
2024-01-30T02:56:03.182Z,6.32
2024-01-30T02:58:30.253Z,6.80
2024-01-30T03:00:57.461Z,5.97
2024-01-30T03:03:24.620Z,6.65
2024-01-30T03:05:51.711Z,6.28
2024-01-30T03:08:18.828Z,7.20
2024-01-30T03:10:46.060Z,7.15
2024-01-30T03:13:13.327Z,7.30
2024-01-30T03:15:40.799Z,7.13
2024-01-30T03:18:08.091Z,6.28
2024-01-30T03:20:35.135Z,7.80
2024-01-30T03:23:02.411Z,6.82
2024-01-30T03:25:29.545Z,7.30
2024-01-30T03:27:57.043Z,6.50
2024-01-30T03:30:24.582Z,6.82
2024-01-30T03:32:51.899Z,6.40
2024-01-30T03:35:20.405Z,8.30
2024-01-30T03:37:47.464Z,7.32
2024-01-30T03:40:14.757Z,7.10
2024-01-30T03:42:41.952Z,7.50
2024-01-30T03:45:09.678Z,6.80
2024-01-30T03:47:36.844Z,7.32
2024-01-30T03:50:06.132Z,6.40
2024-01-30T03:52:33.170Z,7.38
2024-01-30T03:55:00.344Z,7.18
2024-01-30T03:57:27.499Z,6.22
2024-01-30T03:59:54.677Z,7.22
2024-01-30T04:02:22.081Z,6.97
2024-01-30T04:04:49.240Z,6.45
2024-01-30T04:07:16.575Z,7.47
2024-01-30T04:09:43.986Z,6.50
2024-01-30T04:12:11.192Z,6.63
2024-01-30T04:14:40.659Z,7.10
2024-01-30T04:17:07.572Z,6.78
2024-01-30T04:19:39.463Z,7.35
2024-01-30T04:22:06.527Z,7.20
2024-01-30T04:24:33.693Z,7.00
2024-01-30T04:27:00.624Z,7.10
2024-01-30T04:29:27.610Z,5.45
2024-01-30T04:31:54.676Z,5.97
2024-01-30T04:34:21.879Z,7.13
2024-01-30T04:36:49.001Z,6.50
2024-01-30T04:39:16.108Z,7.15
2024-01-30T04:41:43.115Z,6.03
2024-01-30T04:44:10.160Z,6.57
2024-01-30T04:46:37.142Z,5.88
2024-01-30T04:49:04.872Z,6.55
2024-01-30T04:51:31.973Z,5.57
2024-01-30T04:53:58.934Z,6.35
2024-01-30T04:56:25.962Z,7.85
2024-01-30T04:58:53.242Z,6.07
2024-01-30T05:01:20.357Z,6.35
2024-01-30T05:03:47.368Z,6.35
2024-01-30T05:06:14.472Z,7.00
2024-01-30T05:08:41.510Z,6.13
2024-01-30T05:11:08.651Z,6.80
2024-01-30T05:13:35.687Z,8.07
2024-01-30T05:16:04.972Z,5.93
2024-01-30T05:18:32.090Z,6.88
2024-01-30T05:20:59.280Z,7.47
2024-01-30T05:23:26.361Z,6.35
2024-01-30T05:25:53.475Z,7.57
2024-01-30T05:28:20.516Z,7.00
2024-01-30T05:30:47.716Z,6.93
2024-01-30T05:33:15.025Z,5.70
2024-01-30T05:35:42.008Z,7.43
2024-01-30T05:38:09.085Z,6.18
2024-01-30T05:40:36.150Z,6.47
2024-01-30T05:43:04.090Z,6.95
2024-01-30T05:45:31.372Z,6.47
2024-01-30T05:47:58.539Z,7.45
2024-01-30T05:50:26.724Z,6.18
2024-01-30T05:52:54.063Z,6.35
2024-01-30T05:55:21.088Z,7.22
2024-01-30T05:57:48.187Z,7.10
2024-01-30T06:00:15.911Z,6.03
2024-01-30T06:02:42.898Z,6.68
2024-01-30T06:05:10.222Z,6.68
2024-01-30T06:07:37.689Z,6.60
2024-01-30T06:10:05.375Z,7.57
2024-01-30T06:12:32.417Z,6.57
2024-01-30T06:14:59.627Z,7.22
2024-01-30T06:17:26.577Z,6.70
2024-01-30T06:19:53.557Z,7.00
2024-01-30T06:22:21.121Z,7.60
2024-01-30T06:24:49.965Z,6.95
2024-01-30T06:27:17.098Z,7.07
2024-01-30T06:29:44.796Z,6.32
2024-01-30T06:32:12.042Z,6.53
2024-01-30T06:34:40.154Z,7.15
2024-01-30T06:37:07.498Z,8.00
2024-01-30T06:39:34.507Z,7.32
2024-01-30T06:42:01.783Z,7.25
2024-01-30T06:44:32.214Z,7.03
2024-01-30T06:47:00.540Z,7.38
2024-01-30T06:49:27.649Z,7.82
2024-01-30T06:51:54.743Z,8.10
2024-01-30T06:54:21.724Z,6.85
2024-01-30T06:56:48.719Z,8.00
2024-01-30T06:59:15.747Z,7.10
2024-01-30T07:01:42.786Z,6.88
2024-01-30T07:04:09.910Z,7.40
2024-01-30T07:06:37.016Z,7.68
2024-01-30T07:09:04.689Z,8.50
2024-01-30T07:11:31.880Z,7.72
2024-01-30T07:13:58.957Z,8.07
2024-01-30T07:16:26.155Z,7.75
2024-01-30T07:18:53.439Z,8.75
2024-01-30T07:21:22.998Z,7.10
2024-01-30T07:23:50.659Z,7.53
2024-01-30T07:26:17.860Z,8.65
2024-01-30T07:28:45.260Z,8.32
2024-01-30T07:31:12.493Z,6.53
2024-01-30T07:33:39.610Z,7.97
2024-01-30T07:36:07.130Z,8.77
2024-01-30T07:38:34.285Z,8.80
2024-01-30T07:41:01.397Z,8.23
2024-01-30T07:43:28.548Z,8.73
2024-01-30T07:45:55.796Z,8.48
2024-01-30T07:48:22.907Z,8.90
2024-01-30T07:50:50.087Z,8.68
2024-01-30T07:53:17.142Z,9.77
2024-01-30T07:55:48.089Z,9.35
2024-01-30T07:58:15.402Z,8.57
2024-01-30T08:00:44.220Z,8.15
2024-01-30T08:03:11.339Z,7.68
2024-01-30T08:05:40.593Z,8.50
2024-01-30T08:08:07.890Z,9.43
2024-01-30T08:10:35.182Z,8.75
2024-01-30T08:13:03.131Z,7.22
2024-01-30T08:15:30.353Z,8.25
2024-01-30T08:17:59.217Z,7.70
2024-01-30T08:20:26.839Z,9.00
2024-01-30T08:22:54.296Z,7.95
2024-01-30T08:25:21.515Z,8.35
2024-01-30T08:27:48.695Z,7.40
2024-01-30T08:30:15.988Z,9.18
2024-01-30T08:32:43.088Z,8.65
2024-01-30T08:35:10.444Z,9.38
2024-01-30T08:37:38.025Z,8.60
2024-01-30T08:40:06.105Z,10.00
2024-01-30T08:42:34.451Z,9.60
2024-01-30T08:45:01.820Z,9.70
2024-01-30T08:47:31.602Z,8.73
2024-01-30T08:49:58.892Z,9.82
2024-01-30T08:52:26.674Z,9.30
2024-01-30T08:54:53.704Z,9.32
2024-01-30T08:57:20.940Z,8.10
2024-01-30T08:59:48.011Z,9.25
2024-01-30T09:02:17.612Z,9.40
2024-01-30T09:04:45.063Z,11.35
2024-01-30T09:07:12.559Z,10.48
2024-01-30T09:09:42.064Z,9.00
2024-01-30T09:12:10.920Z,8.55
2024-01-30T09:14:39.104Z,9.85
2024-01-30T09:17:06.205Z,9.60
2024-01-30T09:19:33.848Z,10.27
2024-01-30T09:22:01.377Z,9.75
2024-01-30T09:24:28.993Z,9.30
2024-01-30T09:26:56.634Z,9.43
2024-01-30T09:29:23.757Z,9.13
2024-01-30T09:31:50.853Z,8.65
2024-01-30T09:34:18.089Z,9.00
2024-01-30T09:36:45.541Z,9.32
2024-01-30T09:39:12.595Z,9.38
2024-01-30T09:42:18.743Z,8.82
2024-01-30T09:44:48.184Z,8.57
2024-01-30T09:47:17.783Z,8.68
2024-01-30T09:49:45.715Z,8.95
2024-01-30T09:52:13.163Z,9.23
2024-01-30T09:54:41.138Z,9.25
2024-01-30T09:57:09.018Z,9.23
2024-01-30T09:59:36.155Z,9.45
2024-01-30T10:02:05.532Z,9.35
2024-01-30T10:04:33.089Z,8.85
2024-01-30T10:07:03.516Z,8.77
2024-01-30T10:09:34.052Z,9.55
2024-01-30T10:12:01.078Z,8.88
2024-01-30T10:14:28.110Z,9.13
2024-01-30T10:16:55.133Z,9.50
2024-01-30T10:19:22.478Z,8.63
2024-01-30T10:21:49.666Z,9.43
2024-01-30T10:24:18.118Z,10.32
2024-01-30T10:26:45.526Z,9.23
2024-01-30T10:29:12.610Z,10.23
2024-01-30T10:31:39.915Z,9.07
2024-01-30T10:34:12.538Z,10.38
2024-01-30T10:36:51.364Z,9.05
2024-01-30T10:39:19.222Z,8.85
2024-01-30T10:41:49.908Z,8.85
2024-01-30T10:44:21.409Z,10.10
2024-01-30T10:46:57.013Z,9.45
2024-01-30T10:49:25.764Z,9.20
2024-01-30T10:51:54.170Z,9.02
2024-01-30T10:54:21.692Z,9.40
2024-01-30T10:56:49.979Z,9.55
2024-01-30T10:59:17.469Z,9.75
2024-01-30T11:01:45.152Z,9.40
2024-01-30T11:04:12.619Z,9.77
2024-01-30T11:06:44.001Z,9.63
2024-01-30T11:09:14.302Z,9.45
2024-01-30T11:12:01.944Z,8.90
2024-01-30T11:14:31.613Z,8.82
2024-01-30T11:17:02.550Z,8.90
2024-01-30T11:19:34.765Z,9.13
2024-01-30T11:22:02.148Z,9.48
2024-01-30T11:24:29.231Z,9.25
2024-01-30T11:27:00.660Z,9.93
2024-01-30T11:29:29.675Z,9.40
2024-01-30T11:31:58.285Z,10.55
2024-01-30T11:34:26.013Z,10.75
2024-01-30T11:37:14.582Z,10.25
2024-01-30T11:39:44.244Z,10.13
2024-01-30T11:42:12.464Z,10.10
2024-01-30T11:44:39.542Z,10.13
2024-01-30T11:47:06.819Z,10.40
2024-01-30T11:49:34.017Z,9.25
2024-01-30T11:52:01.162Z,9.65
2024-01-30T11:54:28.386Z,10.10
2024-01-30T11:56:55.880Z,10.88
2024-01-30T11:59:22.890Z,10.38
2024-01-30T12:01:50.276Z,10.18
2024-01-30T12:04:17.609Z,9.88
2024-01-30T12:06:44.838Z,9.40
2024-01-30T12:09:14.539Z,10.07
2024-01-30T12:11:53.738Z,10.25
2024-01-30T12:14:21.451Z,9.80
2024-01-30T12:16:52.289Z,9.98
2024-01-30T12:19:26.627Z,9.23
2024-01-30T12:22:00.849Z,14.75
2024-01-30T12:24:29.341Z,10.35
2024-01-30T12:27:00.091Z,9.05
2024-01-30T12:29:30.719Z,9.95
2024-01-30T12:32:01.398Z,10.27
2024-01-30T12:34:28.920Z,9.63
2024-01-30T12:36:57.169Z,8.70
2024-01-30T12:39:24.606Z,10.77
2024-01-30T12:41:52.858Z,10.13
2024-01-30T12:44:20.081Z,10.75
2024-01-30T12:46:49.071Z,9.80
2024-01-30T12:49:16.163Z,14.77
2024-01-30T12:51:43.265Z,9.60
2024-01-30T12:54:10.476Z,9.80
2024-01-30T12:56:37.438Z,10.20
2024-01-30T12:59:04.467Z,8.95
2024-01-30T13:01:31.754Z,9.77
2024-01-30T13:03:59.993Z,9.73
2024-01-30T13:06:27.297Z,9.32
2024-01-30T13:08:54.539Z,9.48
2024-01-30T13:11:22.084Z,9.32
2024-01-30T13:13:49.520Z,9.57
2024-01-30T13:16:16.644Z,9.57
2024-01-30T13:18:43.736Z,9.05
2024-01-30T13:21:11.016Z,10.63
2024-01-30T13:23:38.035Z,10.20
2024-01-30T13:26:05.404Z,9.32
2024-01-30T13:28:32.521Z,10.55
2024-01-30T13:30:59.681Z,9.95
2024-01-30T13:33:27.569Z,9.85
2024-01-30T13:35:54.677Z,10.25
2024-01-30T13:38:21.680Z,12.23
2024-01-30T13:40:48.729Z,10.02
2024-01-30T13:43:16.082Z,10.68
2024-01-30T13:45:43.677Z,10.88
2024-01-30T13:48:10.711Z,11.35
2024-01-30T13:50:37.716Z,10.43
2024-01-30T13:53:05.939Z,11.23
2024-01-30T13:55:33.317Z,10.70
2024-01-30T13:58:00.760Z,11.38
2024-01-30T14:00:27.831Z,12.75
2024-01-30T14:02:59.443Z,10.45
2024-01-30T14:05:27.516Z,11.70
2024-01-30T14:07:55.224Z,11.88
2024-01-30T14:10:22.289Z,12.25
2024-01-30T14:12:49.529Z,10.07
2024-01-30T14:15:27.324Z,11.73
2024-01-30T14:17:56.936Z,11.82
2024-01-30T14:20:24.540Z,10.68
2024-01-30T14:22:52.880Z,10.73
2024-01-30T14:25:20.872Z,10.88
2024-01-30T14:27:48.337Z,9.85
2024-01-30T14:30:15.365Z,10.38
2024-01-30T14:32:43.940Z,11.45
2024-01-30T14:35:11.648Z,10.60
2024-01-30T14:37:39.303Z,10.50
2024-01-30T14:40:08.870Z,10.88
2024-01-30T14:42:37.308Z,10.20
2024-01-30T14:45:08.838Z,10.02
2024-01-30T14:47:37.283Z,10.82
2024-01-30T14:50:08.729Z,11.43
2024-01-30T14:52:38.774Z,10.75
2024-01-30T14:55:06.760Z,11.38
2024-01-30T14:57:36.249Z,11.48
2024-01-30T15:00:04.054Z,12.57
2024-01-30T15:02:33.015Z,11.00
2024-01-30T15:05:01.009Z,10.75
2024-01-30T15:07:39.045Z,11.23
2024-01-30T15:10:11.884Z,10.07
2024-01-30T15:12:39.603Z,11.60
2024-01-30T15:15:10.026Z,11.13
2024-01-30T15:17:37.389Z,10.32
2024-01-30T15:20:05.505Z,10.93
2024-01-30T15:22:33.185Z,11.60
2024-01-30T15:25:00.573Z,10.27
2024-01-30T15:27:30.269Z,11.15
2024-01-30T15:29:58.009Z,10.73
2024-01-30T15:32:26.383Z,9.68
2024-01-30T15:34:54.667Z,11.10
2024-01-30T15:37:23.001Z,11.05
2024-01-30T15:39:50.195Z,11.40
2024-01-30T15:42:17.437Z,10.88
2024-01-30T15:44:44.580Z,10.45
2024-01-30T15:47:12.112Z,11.50
2024-01-30T15:49:39.322Z,10.70
2024-01-30T15:52:06.817Z,10.48
2024-01-30T15:54:33.943Z,12.00
2024-01-30T15:57:00.990Z,11.30
2024-01-30T15:59:28.482Z,11.98
2024-01-30T16:01:55.615Z,11.95
2024-01-30T16:04:25.080Z,12.48
2024-01-30T16:06:52.355Z,11.60
2024-01-30T16:09:19.463Z,11.35
2024-01-30T16:11:46.505Z,11.65
2024-01-30T16:14:13.885Z,11.60
2024-01-30T16:16:40.971Z,11.00
2024-01-30T16:19:08.237Z,11.13
2024-01-30T16:21:35.363Z,11.85
2024-01-30T16:24:02.517Z,11.15
2024-01-30T16:26:29.568Z,12.15
2024-01-30T16:28:56.637Z,11.20
2024-01-30T16:31:23.799Z,11.75
2024-01-30T16:33:51.088Z,11.23
2024-01-30T16:36:18.306Z,11.80
2024-01-30T16:38:45.471Z,12.23
2024-01-30T16:41:12.836Z,10.95
2024-01-30T16:43:40.104Z,11.73
2024-01-30T16:46:07.369Z,12.13
2024-01-30T16:48:34.742Z,11.35
2024-01-30T16:51:02.103Z,11.82
2024-01-30T16:53:30.136Z,12.43
2024-01-30T16:55:57.199Z,11.70
2024-01-30T16:58:24.481Z,12.18
2024-01-30T17:00:52.136Z,11.88
2024-01-30T17:03:19.312Z,12.23
2024-01-30T17:05:46.540Z,12.40
2024-01-30T17:08:13.930Z,11.55
2024-01-30T17:10:41.334Z,12.82
2024-01-30T17:13:08.474Z,11.90
2024-01-30T17:15:36.158Z,12.10
2024-01-30T17:18:03.396Z,11.68
2024-01-30T17:20:30.765Z,11.85
2024-01-30T17:22:57.986Z,13.25
2024-01-30T17:25:25.168Z,12.13
2024-01-30T17:27:52.891Z,11.45
2024-01-30T17:30:23.246Z,12.65
2024-01-30T17:32:54.012Z,12.40
2024-01-30T17:35:21.603Z,11.82
2024-01-30T17:37:48.792Z,11.75
2024-01-30T17:40:16.021Z,12.40
2024-01-30T17:42:43.250Z,11.82
2024-01-30T17:45:11.065Z,11.60
2024-01-30T17:47:39.094Z,11.88
2024-01-30T17:50:06.763Z,10.95
2024-01-30T17:52:34.043Z,12.57
2024-01-30T17:55:01.239Z,12.50
2024-01-30T17:57:30.790Z,12.88
2024-01-30T17:59:58.665Z,11.73
2024-01-30T18:02:26.649Z,11.80
2024-01-30T18:04:53.817Z,12.75
2024-01-30T18:07:21.921Z,13.05
2024-01-30T18:09:49.105Z,12.15
2024-01-30T18:12:16.227Z,13.75
2024-01-30T18:14:43.367Z,13.05
2024-01-30T18:17:10.426Z,12.93
2024-01-30T18:19:37.782Z,13.55
2024-01-30T18:22:05.008Z,13.65
2024-01-30T18:24:32.103Z,13.48
2024-01-30T18:26:59.276Z,12.90
2024-01-30T18:29:27.588Z,14.57
2024-01-30T18:31:54.783Z,14.48
2024-01-30T18:34:22.071Z,13.82
2024-01-30T18:36:49.283Z,13.60
2024-01-30T18:39:16.464Z,13.05
2024-01-30T18:41:43.764Z,13.10
2024-01-30T18:44:10.860Z,13.38
2024-01-30T18:46:38.383Z,13.68
2024-01-30T18:49:05.905Z,13.63
2024-01-30T18:51:33.089Z,12.82
2024-01-30T18:54:00.980Z,12.70
2024-01-30T18:56:27.986Z,13.50
2024-01-30T18:58:55.207Z,13.73
2024-01-30T19:01:22.442Z,11.88
2024-01-30T19:03:49.629Z,13.90
2024-01-30T19:06:17.080Z,13.20
2024-01-30T19:08:44.159Z,13.70
2024-01-30T19:11:21.676Z,13.75
2024-01-30T19:13:49.067Z,12.88
2024-01-30T19:16:16.142Z,14.02
2024-01-30T19:18:44.172Z,11.90
2024-01-30T19:21:11.287Z,12.43
2024-01-30T19:23:38.490Z,12.35
2024-01-30T19:26:05.922Z,13.80
2024-01-30T19:28:33.182Z,12.80
2024-01-30T19:31:02.114Z,13.15
2024-01-30T19:33:29.445Z,13.88
2024-01-30T19:35:56.508Z,12.77
2024-01-30T19:38:26.023Z,14.18
2024-01-30T19:40:55.973Z,13.23
2024-01-30T19:43:23.136Z,14.43
2024-01-30T19:45:50.582Z,13.98
2024-01-30T19:48:17.742Z,13.88
2024-01-30T19:50:45.008Z,14.60
2024-01-30T19:53:12.130Z,14.65
2024-01-30T19:55:39.223Z,13.57
2024-01-30T19:58:06.507Z,14.73
2024-01-30T20:00:33.774Z,13.68
2024-01-30T20:03:01.369Z,14.82
2024-01-30T20:05:28.700Z,13.50
2024-01-30T20:07:56.040Z,13.70
2024-01-30T20:10:23.302Z,14.02
2024-01-30T20:12:54.912Z,14.65
2024-01-30T20:15:23.501Z,15.93
2024-01-30T20:17:50.530Z,14.90
2024-01-30T20:20:18.276Z,14.50
2024-01-30T20:22:47.297Z,13.02
2024-01-30T20:25:19.132Z,13.15
2024-01-30T20:27:48.620Z,14.68
2024-01-30T20:30:17.826Z,14.23
2024-01-30T20:32:45.167Z,14.48
2024-01-30T20:35:12.373Z,14.68
2024-01-30T20:37:39.995Z,15.20
2024-01-30T20:40:07.967Z,15.68
2024-01-30T20:42:35.380Z,15.68
2024-01-30T20:45:05.849Z,15.23
2024-01-30T20:47:34.299Z,14.77
2024-01-30T20:50:01.504Z,14.45
2024-01-30T20:52:31.203Z,14.40
2024-01-30T20:54:58.331Z,14.18
2024-01-30T20:57:25.374Z,14.40
2024-01-30T20:59:52.444Z,13.52
2024-01-30T21:02:19.490Z,14.85
2024-01-30T21:05:06.102Z,14.00
2024-01-30T21:07:33.437Z,11.38
2024-01-30T21:10:00.597Z,13.50
2024-01-30T21:12:29.321Z,13.70
2024-01-30T21:14:56.480Z,13.95
2024-01-30T21:17:23.488Z,14.23
2024-01-30T21:19:50.646Z,13.75
2024-01-30T21:22:18.072Z,12.45
2024-01-30T21:24:45.477Z,13.15
2024-01-30T21:27:13.213Z,13.82
2024-01-30T21:29:42.638Z,14.57
2024-01-30T21:32:10.163Z,15.30
2024-01-30T21:34:37.350Z,13.90
2024-01-30T21:37:04.667Z,14.18
2024-01-30T21:39:31.825Z,14.73
2024-01-30T21:41:59.375Z,14.93
2024-01-30T21:44:29.225Z,14.15
2024-01-30T21:46:57.891Z,13.32
2024-01-30T21:49:25.210Z,14.15
2024-01-30T21:51:53.011Z,13.27
2024-01-30T21:54:20.132Z,14.48
2024-01-30T21:56:47.359Z,14.80
2024-01-30T21:59:14.655Z,12.68
2024-01-30T22:01:41.715Z,14.20
2024-01-30T22:04:08.999Z,15.02
2024-01-30T22:06:36.433Z,14.35
2024-01-30T22:09:03.728Z,14.88
2024-01-30T22:11:30.822Z,14.30
2024-01-30T22:13:58.076Z,14.75
2024-01-30T22:16:25.139Z,13.77
2024-01-30T22:18:52.258Z,13.15
2024-01-30T22:21:19.432Z,15.02
2024-01-30T22:23:47.441Z,13.65
2024-01-30T22:26:14.616Z,14.68
2024-01-30T22:28:41.693Z,14.57
2024-01-30T22:31:09.324Z,13.10
2024-01-30T22:33:36.436Z,14.18
2024-01-30T22:36:03.701Z,14.70
2024-01-30T22:38:31.050Z,14.30
2024-01-30T22:40:59.497Z,14.90
2024-01-30T22:43:27.491Z,13.15
2024-01-30T22:45:54.670Z,14.70
2024-01-30T22:48:21.699Z,14.00
2024-01-30T22:50:48.785Z,13.45
2024-01-30T22:53:15.799Z,13.25
2024-01-30T22:55:43.621Z,14.88
2024-01-30T22:58:10.759Z,13.65
2024-01-30T23:00:38.752Z,14.90
2024-01-30T23:03:05.916Z,14.80
2024-01-30T23:05:34.491Z,14.30
2024-01-30T23:08:01.570Z,14.20
2024-01-30T23:10:28.650Z,14.57
2024-01-30T23:12:55.853Z,15.77
2024-01-30T23:15:23.554Z,15.73
2024-01-30T23:17:51.163Z,16.35
2024-01-30T23:20:18.662Z,15.68
2024-01-30T23:22:45.744Z,16.10
2024-01-30T23:25:12.778Z,14.60
2024-01-30T23:27:40.121Z,15.25
2024-01-30T23:30:08.117Z,15.70
2024-01-30T23:32:41.796Z,14.93
2024-01-30T23:35:10.640Z,15.57
2024-01-30T23:37:39.843Z,17.08
2024-01-30T23:40:16.520Z,16.98
2024-01-30T23:42:45.394Z,16.63
2024-01-30T23:45:12.531Z,17.60
2024-01-30T23:47:39.934Z,17.77
2024-01-30T23:50:07.564Z,16.85
2024-01-30T23:52:35.217Z,16.27
2024-01-30T23:55:02.668Z,18.20
2024-01-30T23:57:31.059Z,17.15
2024-01-30T23:59:58.147Z,16.65
